Sandspit Airport
CYZP : now visible

Airfield :











YOU CAN JOIN US ON...

 
LOGIN :

Register | Disclaimer

   EN    FR    IT 

 









Legend :    VFR   Marginal VFR   IFR   Intensive IFR   Very Intensive IFR
Visi :
Ceiling :
>= 8 km
>= 3000ft
5 to 8 km
1000 to 3000 ft
1500m to 5 km
500 to 1000 ft
800 to 1500m
200 to 500 ft
< 800m
< 200 ft
Symbols :   Thunderstorms  Fog  Heavy snow  Heavy precipitations  Wind > 20 kt







- Airport Elevation : 21 ft
- IATA code : YZP


CYZP - Sandspit

CURRENT METAR :
  • 170900Z AUTO 24004KT 9SM BKN028 OVC036 13/11 A2931 RMK SLP925 DENSITY ALT 400FT

EXPIRED METARs :
  • 170800Z AUTO 16022G29KT 9SM SCT010 OVC033 13/12 A2928 RMK SLP918 DENSITY ALT 500FT
  • 170703Z AUTO 15029G34KT 9SM SCT013 OVC070 13/12 A2926 RMK SLP908 DENSITY ALT 500FT
  • 170632Z AUTO 14038G48KT 6SM BR OVC015 13/11 A2925 RMK PRESFR SLP905 DENSITY ALT 500FT
  • 170623Z AUTO 14037G47KT 3SM -RA BR OVC015 13/11 A2926 RMK PRESFR SLP908 DENSITY ALT 500FT

TAF TAF CYZP
Valid from the 17 at 07:00 until the 17 at 19:00 UTC


170639Z 1707/1719 14030G50KT 2SM -RA BR OVC012
TEMPO 1707/1710 6SM BR OVC025
FM171000 20010KT P6SM BKN025
TEMPO 1710/1719 P6SM -SHRA SCT006 BKN012
BECMG 1711/1713 04012KT RMK FCST BASED ON AUTO OBS. NXT FCST BY 171300Z
No reported NOTAMs for that airfield.



MET'MAP, your aeronautical weather chart ! - Copyright ORBIFLY December 2007 - Disclaimer

ORBIFLY MET'MAP TEAM :

Programming & Development : Alexandra Zaïnal
Concept & Development : Baudouin d'Aumeries
Co-Development & Prog : Marc-Olivier Méhu
Technical & hardware support : Manuel Goepfert

Contact : metmap@orbifly.com




SOURCES & CREDITS :

   NOAA       Earth
Advisory